sensor_id;sensor_type;location;lat;lon;timestamp;pressure;altitude;pressure_sealevel;temperature;humidity
10202;BME280;5143;42.584;23.164;2023-09-12T00:00:08;92777.28;;;10.26;100.00
10202;BME280;5143;42.584;23.164;2023-09-12T00:02:35;92776.28;;;10.24;100.00
10202;BME280;5143;42.584;23.164;2023-09-12T00:05:04;92785.00;;;10.28;100.00
10202;BME280;5143;42.584;23.164;2023-09-12T00:07:31;92780.22;;;10.23;100.00
10202;BME280;5143;42.584;23.164;2023-09-12T00:09:58;92783.22;;;10.25;100.00
10202;BME280;5143;42.584;23.164;2023-09-12T00:12:25;92777.75;;;10.25;100.00
10202;BME280;5143;42.584;23.164;2023-09-12T00:14:52;92784.72;;;10.26;100.00
10202;BME280;5143;42.584;23.164;2023-09-12T00:17:19;92786.50;;;10.29;100.00
10202;BME280;5143;42.584;23.164;2023-09-12T00:19:46;92790.75;;;10.30;100.00
10202;BME280;5143;42.584;23.164;2023-09-12T00:22:14;92770.47;;;10.16;100.00
10202;BME280;5143;42.584;23.164;2023-09-12T00:24:41;92772.72;;;10.18;100.00
10202;BME280;5143;42.584;23.164;2023-09-12T00:27:08;92793.09;;;10.22;100.00
10202;BME280;5143;42.584;23.164;2023-09-12T00:29:35;92780.31;;;10.14;100.00
10202;BME280;5143;42.584;23.164;2023-09-12T00:32:02;92751.09;;;9.99;100.00
10202;BME280;5143;42.584;23.164;2023-09-12T00:34:29;92781.47;;;10.07;100.00
10202;BME280;5143;42.584;23.164;2023-09-12T00:36:56;92795.22;;;10.13;100.00
10202;BME280;5143;42.584;23.164;2023-09-12T00:39:25;92791.59;;;10.06;100.00
10202;BME280;5143;42.584;23.164;2023-09-12T00:41:51;92793.22;;;9.98;100.00
10202;BME280;5143;42.584;23.164;2023-09-12T00:44:18;92782.50;;;9.95;100.00
10202;BME280;5143;42.584;23.164;2023-09-12T00:46:46;92791.34;;;10.04;100.00
10202;BME280;5143;42.584;23.164;2023-09-12T00:49:14;92798.19;;;10.00;100.00
10202;BME280;5143;42.584;23.164;2023-09-12T00:51:42;92784.97;;;9.93;100.00
10202;BME280;5143;42.584;23.164;2023-09-12T00:54:10;92796.72;;;9.99;100.00
10202;BME280;5143;42.584;23.164;2023-09-12T00:56:39;92793.22;;;9.98;100.00
10202;BME280;5143;42.584;23.164;2023-09-12T00:59:06;92793.22;;;9.98;100.00
10202;BME280;5143;42.584;23.164;2023-09-12T01:01:34;92792.97;;;9.96;100.00
10202;BME280;5143;42.584;23.164;2023-09-12T01:04:01;92792.38;;;9.92;100.00
10202;BME280;5143;42.584;23.164;2023-09-12T01:06:31;92793.13;;;9.93;100.00
10202;BME280;5143;42.584;23.164;2023-09-12T01:08:58;92800.03;;;9.88;100.00
10202;BME280;5143;42.584;23.164;2023-09-12T01:11:26;92808.94;;;9.89;100.00
10202;BME280;5143;42.584;23.164;2023-09-12T01:13:54;92806.41;;;9.85;100.00
10202;BME280;5143;42.584;23.164;2023-09-12T01:16:21;92810.84;;;9.83;100.00
10202;BME280;5143;42.584;23.164;2023-09-12T01:18:48;92807.81;;;9.81;100.00
10202;BME280;5143;42.584;23.164;2023-09-12T01:21:32;92811.78;;;9.80;100.00
10202;BME280;5143;42.584;23.164;2023-09-12T01:24:21;92804.25;;;9.75;100.00
10202;BME280;5143;42.584;23.164;2023-09-12T01:26:59;92812.22;;;9.78;100.00
10202;BME280;5143;42.584;23.164;2023-09-12T01:29:32;92812.22;;;9.78;100.00
10202;BME280;5143;42.584;23.164;2023-09-12T01:32:00;92817.41;;;9.76;100.00
10202;BME280;5143;42.584;23.164;2023-09-12T01:34:28;92813.66;;;9.74;100.00
10202;BME280;5143;42.584;23.164;2023-09-12T01:36:55;92818.06;;;9.71;100.00
10202;BME280;5143;42.584;23.164;2023-09-12T01:39:22;92818.06;;;9.71;100.00
10202;BME280;5143;42.584;23.164;2023-09-12T01:41:50;92782.84;;;9.53;100.00
10202;BME280;5143;42.584;23.164;2023-09-12T01:44:20;92804.53;;;9.62;100.00
10202;BME280;5143;42.584;23.164;2023-09-12T01:46:53;92809.03;;;9.50;100.00
10202;BME280;5143;42.584;23.164;2023-09-12T01:49:24;92791.78;;;9.39;100.00
10202;BME280;5143;42.584;23.164;2023-09-12T01:51:51;92791.38;;;9.46;100.00
10202;BME280;5143;42.584;23.164;2023-09-12T01:54:19;92809.78;;;9.51;100.00
10202;BME280;5143;42.584;23.164;2023-09-12T01:56:46;92803.22;;;9.43;100.00
10202;BME280;5143;42.584;23.164;2023-09-12T01:59:14;92798.34;;;9.32;100.00
10202;BME280;5143;42.584;23.164;2023-09-12T02:01:42;92822.28;;;9.43;100.00
10202;BME280;5143;42.584;23.164;2023-09-12T02:04:10;92814.69;;;9.47;100.00
10202;BME280;5143;42.584;23.164;2023-09-12T02:06:37;92795.59;;;9.32;100.00
10202;BME280;5143;42.584;23.164;2023-09-12T02:09:04;92816.19;;;9.48;100.00
10202;BME280;5143;42.584;23.164;2023-09-12T02:11:31;92825.22;;;9.54;100.00
10202;BME280;5143;42.584;23.164;2023-09-12T02:13:58;92818.28;;;9.53;100.00
10202;BME280;5143;42.584;23.164;2023-09-12T02:16:25;92821.53;;;9.42;100.00
10202;BME280;5143;42.584;23.164;2023-09-12T02:18:52;92812.81;;;9.38;100.00
10202;BME280;5143;42.584;23.164;2023-09-12T02:21:20;92818.63;;;9.46;100.00
10202;BME280;5143;42.584;23.164;2023-09-12T02:23:47;92818.63;;;9.46;100.00
10202;BME280;5143;42.584;23.164;2023-09-12T02:26:14;92819.56;;;9.43;100.00
10202;BME280;5143;42.584;23.164;2023-09-12T02:28:41;92822.28;;;9.43;100.00
10202;BME280;5143;42.584;23.164;2023-09-12T02:31:10;92818.63;;;9.46;100.00
10202;BME280;5143;42.584;23.164;2023-09-12T02:33:37;92819.13;;;9.44;100.00
10202;BME280;5143;42.584;23.164;2023-09-12T02:36:05;92817.31;;;9.27;100.00
10202;BME280;5143;42.584;23.164;2023-09-12T02:38:33;92819.91;;;9.21;100.00
10202;BME280;5143;42.584;23.164;2023-09-12T02:41:01;92821.88;;;9.21;100.00
10202;BME280;5143;42.584;23.164;2023-09-12T02:43:28;92774.97;;;8.87;100.00
10202;BME280;5143;42.584;23.164;2023-09-12T02:45:55;92823.84;;;9.20;100.00
10202;BME280;5143;42.584;23.164;2023-09-12T02:48:23;92826.13;;;9.22;100.00
10202;BME280;5143;42.584;23.164;2023-09-12T02:50:49;92806.19;;;9.16;100.00
10202;BME280;5143;42.584;23.164;2023-09-12T02:53:16;92822.47;;;9.25;100.00
10202;BME280;5143;42.584;23.164;2023-09-12T02:55:44;92825.19;;;9.25;100.00
10202;BME280;5143;42.584;23.164;2023-09-12T02:58:11;92823.41;;;9.22;100.00
10202;BME280;5143;42.584;23.164;2023-09-12T03:00:38;92815.69;;;9.20;100.00
10202;BME280;5143;42.584;23.164;2023-09-12T03:03:06;92821.34;;;9.17;100.00
10202;BME280;5143;42.584;23.164;2023-09-12T03:05:34;92811.91;;;9.03;100.00
10202;BME280;5143;42.584;23.164;2023-09-12T03:08:02;92817.63;;;9.05;100.00
10202;BME280;5143;42.584;23.164;2023-09-12T03:10:29;92824.41;;;9.10;100.00
10202;BME280;5143;42.584;23.164;2023-09-12T03:12:57;92804.84;;;8.97;100.00
10202;BME280;5143;42.584;23.164;2023-09-12T03:15:24;92826.19;;;9.13;100.00
10202;BME280;5143;42.584;23.164;2023-09-12T03:17:53;92810.13;;;9.00;100.00
10202;BME280;5143;42.584;23.164;2023-09-12T03:20:20;92820.38;;;9.05;100.00
10202;BME280;5143;42.584;23.164;2023-09-12T03:22:47;92830.97;;;9.03;100.00
10202;BME280;5143;42.584;23.164;2023-09-12T03:25:14;92824.94;;;8.99;100.00
10202;BME280;5143;42.584;23.164;2023-09-12T03:27:41;92828.44;;;9.00;100.00
10202;BME280;5143;42.584;23.164;2023-09-12T03:30:10;92823.25;;;9.02;100.00
10202;BME280;5143;42.584;23.164;2023-09-12T03:32:38;92829.19;;;9.00;100.00
10202;BME280;5143;42.584;23.164;2023-09-12T03:35:05;92819.13;;;8.92;100.00
10202;BME280;5143;42.584;23.164;2023-09-12T03:37:32;92807.63;;;8.87;100.00
10202;BME280;5143;42.584;23.164;2023-09-12T03:39:59;92814.44;;;8.92;100.00
10202;BME280;5143;42.584;23.164;2023-09-12T03:42:26;92826.91;;;8.99;100.00
10202;BME280;5143;42.584;23.164;2023-09-12T03:44:53;92836.59;;;9.00;100.00
10202;BME280;5143;42.584;23.164;2023-09-12T03:47:21;92827.50;;;9.03;100.00
10202;BME280;5143;42.584;23.164;2023-09-12T03:49:48;92830.97;;;9.03;100.00
10202;BME280;5143;42.584;23.164;2023-09-12T03:52:14;92843.34;;;9.04;100.00
10202;BME280;5143;42.584;23.164;2023-09-12T03:54:41;92843.84;;;9.03;100.00
10202;BME280;5143;42.584;23.164;2023-09-12T03:57:09;92840.84;;;9.01;100.00
10202;BME280;5143;42.584;23.164;2023-09-12T03:59:37;92842.31;;;9.02;100.00
10202;BME280;5143;42.584;23.164;2023-09-12T04:02:04;92827.56;;;8.94;100.00
10202;BME280;5143;42.584;23.164;2023-09-12T04:04:32;92846.56;;;9.03;100.00
10202;BME280;5143;42.584;23.164;2023-09-12T04:06:59;92838.84;;;9.01;100.00
10202;BME280;5143;42.584;23.164;2023-09-12T04:09:26;92846.38;;;9.06;100.00
10202;BME280;5143;42.584;23.164;2023-09-12T04:11:54;92836.22;;;9.07;100.00
10202;BME280;5143;42.584;23.164;2023-09-12T04:14:21;92837.25;;;9.09;100.00
10202;BME280;5143;42.584;23.164;2023-09-12T04:16:48;92843.56;;;9.15;100.00
10202;BME280;5143;42.584;23.164;2023-09-12T04:19:15;92843.13;;;9.17;100.00
10202;BME280;5143;42.584;23.164;2023-09-12T04:21:43;92843.97;;;9.23;100.00
10202;BME280;5143;42.584;23.164;2023-09-12T04:24:10;92842.00;;;9.23;100.00
10202;BME280;5143;42.584;23.164;2023-09-12T04:26:38;92822.16;;;9.08;100.00
10202;BME280;5143;42.584;23.164;2023-09-12T04:29:05;92842.41;;;9.31;100.00
10202;BME280;5143;42.584;23.164;2023-09-12T04:31:32;92853.44;;;9.13;100.00
10202;BME280;5143;42.584;23.164;2023-09-12T04:33:59;92844.69;;;9.09;100.00
10202;BME280;5143;42.584;23.164;2023-09-12T04:36:26;92855.06;;;9.19;100.00
10202;BME280;5143;42.584;23.164;2023-09-12T04:38:55;92843.34;;;9.04;100.00
10202;BME280;5143;42.584;23.164;2023-09-12T04:41:22;92854.88;;;9.23;100.00
10202;BME280;5143;42.584;23.164;2023-09-12T04:43:49;92849.38;;;9.08;100.00
10202;BME280;5143;42.584;23.164;2023-09-12T04:46:16;92850.91;;;9.24;100.00
10202;BME280;5143;42.584;23.164;2023-09-12T04:48:43;92850.47;;;9.40;100.00
10202;BME280;5143;42.584;23.164;2023-09-12T04:51:10;92858.56;;;9.49;100.00
10202;BME280;5143;42.584;23.164;2023-09-12T04:53:37;92847.00;;;9.54;100.00
10202;BME280;5143;42.584;23.164;2023-09-12T04:56:06;92853.97;;;9.55;100.00
10202;BME280;5143;42.584;23.164;2023-09-12T04:58:35;92849.53;;;9.43;100.00
10202;BME280;5143;42.584;23.164;2023-09-12T05:01:02;92842.69;;;9.47;100.00
10202;BME280;5143;42.584;23.164;2023-09-12T05:03:29;92853.41;;;9.66;100.00
10202;BME280;5143;42.584;23.164;2023-09-12T05:05:58;92862.53;;;9.77;100.00
10202;BME280;5143;42.584;23.164;2023-09-12T05:08:25;92866.94;;;9.89;100.00
10202;BME280;5143;42.584;23.164;2023-09-12T05:10:52;92866.41;;;9.85;100.00
10202;BME280;5143;42.584;23.164;2023-09-12T05:13:20;92839.41;;;9.73;100.00
10202;BME280;5143;42.584;23.164;2023-09-12T05:15:47;92866.22;;;10.53;100.00
10202;BME280;5143;42.584;23.164;2023-09-12T05:18:14;92864.78;;;12.04;100.00
10202;BME280;5143;42.584;23.164;2023-09-12T05:20:41;92867.38;;;14.38;100.00
10202;BME280;5143;42.584;23.164;2023-09-12T05:23:08;92879.94;;;16.39;100.00
10202;BME280;5143;42.584;23.164;2023-09-12T05:25:36;92878.19;;;18.43;100.00
10202;BME280;5143;42.584;23.164;2023-09-12T05:28:04;92885.16;;;19.92;83.01
10202;BME280;5143;42.584;23.164;2023-09-12T05:30:32;92896.22;;;21.06;73.13
10202;BME280;5143;42.584;23.164;2023-09-12T05:33:01;92884.84;;;21.66;68.68
10202;BME280;5143;42.584;23.164;2023-09-12T05:35:28;92894.72;;;22.54;65.09
10202;BME280;5143;42.584;23.164;2023-09-12T05:37:55;92886.16;;;23.18;59.65
10202;BME280;5143;42.584;23.164;2023-09-12T05:40:22;92904.47;;;24.04;56.19
10202;BME280;5143;42.584;23.164;2023-09-12T05:42:49;92906.06;;;24.38;54.42
10202;BME280;5143;42.584;23.164;2023-09-12T05:45:15;92911.91;;;25.04;53.79
10202;BME280;5143;42.584;23.164;2023-09-12T05:47:44;92912.44;;;25.60;51.04
10202;BME280;5143;42.584;23.164;2023-09-12T05:50:11;92896.53;;;26.04;50.37
10202;BME280;5143;42.584;23.164;2023-09-12T05:52:38;92887.34;;;26.46;49.68
10202;BME280;5143;42.584;23.164;2023-09-12T05:55:07;92912.16;;;26.93;47.47
10202;BME280;5143;42.584;23.164;2023-09-12T05:57:34;92890.84;;;26.63;45.86
10202;BME280;5143;42.584;23.164;2023-09-12T06:00:01;92912.50;;;25.94;46.85
10202;BME280;5143;42.584;23.164;2023-09-12T06:02:29;92904.31;;;26.30;45.80
10202;BME280;5143;42.584;23.164;2023-09-12T06:05:00;92908.81;;;26.60;44.78
10202;BME280;5143;42.584;23.164;2023-09-12T06:07:27;92922.47;;;26.90;45.14
10202;BME280;5143;42.584;23.164;2023-09-12T06:09:54;92928.00;;;27.34;44.55
10202;BME280;5143;42.584;23.164;2023-09-12T06:12:21;92926.63;;;27.52;43.33
10202;BME280;5143;42.584;23.164;2023-09-12T06:14:49;92927.44;;;28.18;42.04
10202;BME280;5143;42.584;23.164;2023-09-12T06:17:16;92932.97;;;28.64;40.09
10202;BME280;5143;42.584;23.164;2023-09-12T06:19:42;92933.50;;;29.10;38.36
10202;BME280;5143;42.584;23.164;2023-09-12T06:22:10;92933.28;;;30.18;36.94
10202;BME280;5143;42.584;23.164;2023-09-12T06:24:37;92943.69;;;30.58;35.25
10202;BME280;5143;42.584;23.164;2023-09-12T06:27:05;92933.00;;;30.14;35.71
10202;BME280;5143;42.584;23.164;2023-09-12T06:29:32;92942.19;;;30.99;35.03
10202;BME280;5143;42.584;23.164;2023-09-12T06:31:59;92950.59;;;30.66;34.34
10202;BME280;5143;42.584;23.164;2023-09-12T06:34:27;92959.63;;;30.95;34.14
10202;BME280;5143;42.584;23.164;2023-09-12T06:36:54;92954.66;;;31.17;34.20
10202;BME280;5143;42.584;23.164;2023-09-12T06:39:22;92955.38;;;31.62;33.76
10202;BME280;5143;42.584;23.164;2023-09-12T06:41:49;92956.28;;;31.88;32.39
10202;BME280;5143;42.584;23.164;2023-09-12T06:44:16;92954.81;;;31.98;33.00
10202;BME280;5143;42.584;23.164;2023-09-12T06:46:43;92952.34;;;31.81;33.48
10202;BME280;5143;42.584;23.164;2023-09-12T06:49:10;92950.88;;;31.69;33.19
10202;BME280;5143;42.584;23.164;2023-09-12T06:51:37;92961.34;;;32.13;33.31
10202;BME280;5143;42.584;23.164;2023-09-12T06:54:04;92951.84;;;32.66;32.90
10202;BME280;5143;42.584;23.164;2023-09-12T06:56:32;92957.75;;;31.77;32.12
10202;BME280;5143;42.584;23.164;2023-09-12T06:59:03;92949.53;;;31.25;33.32
10202;BME280;5143;42.584;23.164;2023-09-12T07:01:30;92958.22;;;31.18;32.37
10202;BME280;5143;42.584;23.164;2023-09-12T07:03:57;92958.00;;;30.50;33.31
10202;BME280;5143;42.584;23.164;2023-09-12T07:06:24;92961.94;;;30.78;33.82
10202;BME280;5143;42.584;23.164;2023-09-12T07:08:51;92958.22;;;30.33;34.57
10202;BME280;5143;42.584;23.164;2023-09-12T07:11:18;92949.25;;;29.54;35.27
10202;BME280;5143;42.584;23.164;2023-09-12T07:13:47;92948.59;;;29.15;35.87
10202;BME280;5143;42.584;23.164;2023-09-12T07:16:14;92952.59;;;28.54;36.38
10202;BME280;5143;42.584;23.164;2023-09-12T07:18:41;92949.50;;;29.08;37.24
10202;BME280;5143;42.584;23.164;2023-09-12T07:21:09;92957.13;;;29.96;36.40
10202;BME280;5143;42.584;23.164;2023-09-12T07:23:37;92961.78;;;29.72;34.95
10202;BME280;5143;42.584;23.164;2023-09-12T07:26:04;92952.00;;;29.23;35.34
10202;BME280;5143;42.584;23.164;2023-09-12T07:28:31;92957.50;;;29.71;35.60
10202;BME280;5143;42.584;23.164;2023-09-12T07:31:00;92956.38;;;29.45;34.98
10202;BME280;5143;42.584;23.164;2023-09-12T07:33:27;92952.88;;;29.06;34.80
10202;BME280;5143;42.584;23.164;2023-09-12T07:35:54;92951.84;;;29.31;35.89
10202;BME280;5143;42.584;23.164;2023-09-12T07:38:21;92955.41;;;29.12;35.71
10202;BME280;5143;42.584;23.164;2023-09-12T07:40:48;92957.16;;;29.36;34.93
10202;BME280;5143;42.584;23.164;2023-09-12T07:43:15;92948.66;;;28.67;35.90
10202;BME280;5143;42.584;23.164;2023-09-12T07:45:42;92941.03;;;28.22;37.41
10202;BME280;5143;42.584;23.164;2023-09-12T07:48:11;92937.44;;;27.29;38.65
10202;BME280;5143;42.584;23.164;2023-09-12T07:50:38;92935.00;;;27.16;38.07
10202;BME280;5143;42.584;23.164;2023-09-12T07:53:05;92940.78;;;27.18;37.84
10202;BME280;5143;42.584;23.164;2023-09-12T07:55:36;92929.94;;;27.05;38.30
10202;BME280;5143;42.584;23.164;2023-09-12T07:58:10;92937.38;;;26.76;39.89
10202;BME280;5143;42.584;23.164;2023-09-12T08:00:37;92935.91;;;26.23;40.12
10202;BME280;5143;42.584;23.164;2023-09-12T08:03:04;92924.91;;;25.34;41.02
10202;BME280;5143;42.584;23.164;2023-09-12T08:05:33;92928.94;;;25.48;40.58
10202;BME280;5143;42.584;23.164;2023-09-12T08:07:59;92923.41;;;25.08;41.38
10202;BME280;5143;42.584;23.164;2023-09-12T08:10:26;92926.63;;;24.97;42.42
10202;BME280;5143;42.584;23.164;2023-09-12T08:12:54;92930.16;;;24.58;41.15
10202;BME280;5143;42.584;23.164;2023-09-12T08:15:21;92927.47;;;24.75;42.92
10202;BME280;5143;42.584;23.164;2023-09-12T08:17:48;92930.59;;;24.87;39.37
10202;BME280;5143;42.584;23.164;2023-09-12T08:20:17;92927.78;;;24.47;40.11
10202;BME280;5143;42.584;23.164;2023-09-12T08:22:46;92927.97;;;24.49;40.31
10202;BME280;5143;42.584;23.164;2023-09-12T08:25:14;92927.19;;;24.56;40.71
10202;BME280;5143;42.584;23.164;2023-09-12T08:27:41;92930.06;;;24.81;40.87
10202;BME280;5143;42.584;23.164;2023-09-12T08:30:10;92921.50;;;24.39;41.54
10202;BME280;5143;42.584;23.164;2023-09-12T08:32:38;92925.63;;;24.70;42.17
10202;BME280;5143;42.584;23.164;2023-09-12T08:35:09;92911.41;;;24.91;42.11
10202;BME280;5143;42.584;23.164;2023-09-12T08:37:38;92922.03;;;25.17;41.46
10202;BME280;5143;42.584;23.164;2023-09-12T08:40:08;92898.47;;;24.71;40.69
10202;BME280;5143;42.584;23.164;2023-09-12T08:42:39;92911.19;;;24.96;40.90
10202;BME280;5143;42.584;23.164;2023-09-12T08:45:11;92914.66;;;24.80;41.04
10202;BME280;5143;42.584;23.164;2023-09-12T08:47:40;92899.94;;;24.72;42.17
10202;BME280;5143;42.584;23.164;2023-09-12T08:50:10;92911.72;;;25.02;43.15
10202;BME280;5143;42.584;23.164;2023-09-12T08:52:39;92917.50;;;25.29;40.81
10202;BME280;5143;42.584;23.164;2023-09-12T08:55:08;92917.88;;;25.01;41.16
10202;BME280;5143;42.584;23.164;2023-09-12T08:57:38;92921.66;;;25.20;42.15
10202;BME280;5143;42.584;23.164;2023-09-12T09:00:06;92919.09;;;25.40;41.38
10202;BME280;5143;42.584;23.164;2023-09-12T09:02:35;92926.81;;;25.81;41.31
10202;BME280;5143;42.584;23.164;2023-09-12T09:05:06;92917.34;;;25.76;41.44
10202;BME280;5143;42.584;23.164;2023-09-12T09:07:35;92920.25;;;25.61;41.05
10202;BME280;5143;42.584;23.164;2023-09-12T09:10:04;92927.00;;;25.58;41.51
10202;BME280;5143;42.584;23.164;2023-09-12T09:12:34;92922.19;;;25.93;41.10
10202;BME280;5143;42.584;23.164;2023-09-12T09:15:22;92922.91;;;26.01;39.32
10202;BME280;5143;42.584;23.164;2023-09-12T09:17:50;92926.28;;;25.75;39.58
10202;BME280;5143;42.584;23.164;2023-09-12T09:20:26;92908.38;;;25.78;40.03
10202;BME280;5143;42.584;23.164;2023-09-12T09:23:00;92918.59;;;26.00;40.83
10202;BME280;5143;42.584;23.164;2023-09-12T09:25:31;92918.56;;;25.83;39.98
10202;BME280;5143;42.584;23.164;2023-09-12T09:28:02;92910.50;;;25.70;39.67
10202;BME280;5143;42.584;23.164;2023-09-12T09:30:41;92907.22;;;25.81;40.88
10202;BME280;5143;42.584;23.164;2023-09-12T09:33:08;92905.19;;;25.82;40.07
10202;BME280;5143;42.584;23.164;2023-09-12T09:35:36;92898.28;;;26.00;40.59
10202;BME280;5143;42.584;23.164;2023-09-12T09:38:03;92902.19;;;25.79;40.18
10202;BME280;5143;42.584;23.164;2023-09-12T09:40:32;92905.91;;;25.82;40.58
10202;BME280;5143;42.584;23.164;2023-09-12T09:43:01;92898.41;;;25.67;40.26
10202;BME280;5143;42.584;23.164;2023-09-12T09:45:30;92901.94;;;25.68;39.67
10202;BME280;5143;42.584;23.164;2023-09-12T09:47:58;92905.22;;;25.74;40.50
10202;BME280;5143;42.584;23.164;2023-09-12T09:50:26;92901.94;;;25.68;39.53
10202;BME280;5143;42.584;23.164;2023-09-12T09:52:54;92894.13;;;25.66;40.28
10202;BME280;5143;42.584;23.164;2023-09-12T09:55:23;92892.69;;;26.00;40.65
10202;BME280;5143;42.584;23.164;2023-09-12T09:57:50;92885.50;;;25.89;40.02
10202;BME280;5143;42.584;23.164;2023-09-12T10:00:22;92891.56;;;26.20;40.37
10202;BME280;5143;42.584;23.164;2023-09-12T10:02:50;92889.53;;;26.13;40.31
10202;BME280;5143;42.584;23.164;2023-09-12T10:05:18;92885.47;;;26.14;40.83
10202;BME280;5143;42.584;23.164;2023-09-12T10:07:48;92886.28;;;26.07;40.39
10202;BME280;5143;42.584;23.164;2023-09-12T10:10:17;92882.44;;;26.19;41.04
10202;BME280;5143;42.584;23.164;2023-09-12T10:12:49;92887.69;;;26.15;39.46
10202;BME280;5143;42.584;23.164;2023-09-12T10:15:20;92880.69;;;26.07;40.52
10202;BME280;5143;42.584;23.164;2023-09-12T10:17:55;92877.88;;;26.24;40.83
10202;BME280;5143;42.584;23.164;2023-09-12T10:20:27;92878.63;;;26.24;39.96
10202;BME280;5143;42.584;23.164;2023-09-12T10:23:02;92870.13;;;26.49;41.16
10202;BME280;5143;42.584;23.164;2023-09-12T10:25:35;92870.41;;;26.70;40.51
10202;BME280;5143;42.584;23.164;2023-09-12T10:28:04;92876.22;;;26.55;38.92
10202;BME280;5143;42.584;23.164;2023-09-12T10:30:33;92864.72;;;26.34;39.81
10202;BME280;5143;42.584;23.164;2023-09-12T10:33:02;92858.38;;;26.33;39.89
10202;BME280;5143;42.584;23.164;2023-09-12T10:35:30;92871.03;;;26.52;40.83
10202;BME280;5143;42.584;23.164;2023-09-12T10:38:00;92865.03;;;26.38;40.58
10202;BME280;5143;42.584;23.164;2023-09-12T10:40:29;92863.47;;;26.45;40.65
10202;BME280;5143;42.584;23.164;2023-09-12T10:42:58;92864.78;;;26.44;39.90
10202;BME280;5143;42.584;23.164;2023-09-12T10:45:26;92852.03;;;26.16;40.41
10202;BME280;5143;42.584;23.164;2023-09-12T10:47:55;92840.50;;;26.29;39.46
10202;BME280;5143;42.584;23.164;2023-09-12T10:50:22;92853.59;;;26.44;38.70
10202;BME280;5143;42.584;23.164;2023-09-12T10:52:49;92851.94;;;26.41;39.46
10202;BME280;5143;42.584;23.164;2023-09-12T10:55:17;92842.28;;;26.51;40.01
10202;BME280;5143;42.584;23.164;2023-09-12T10:58:00;92846.78;;;26.64;39.37
10202;BME280;5143;42.584;23.164;2023-09-12T11:00:28;92843.41;;;26.65;38.71
10202;BME280;5143;42.584;23.164;2023-09-12T11:03:00;92840.59;;;26.65;39.20
10202;BME280;5143;42.584;23.164;2023-09-12T11:05:54;92832.72;;;26.54;38.94
10202;BME280;5143;42.584;23.164;2023-09-12T11:08:21;92833.06;;;26.58;39.75
10202;BME280;5143;42.584;23.164;2023-09-12T11:11:16;92837.75;;;26.56;38.75
10202;BME280;5143;42.584;23.164;2023-09-12T11:13:43;92842.91;;;26.32;38.73
10202;BME280;5143;42.584;23.164;2023-09-12T11:16:12;92837.03;;;26.38;39.01
10202;BME280;5143;42.584;23.164;2023-09-12T11:19:14;92830.81;;;26.57;39.01
10202;BME280;5143;42.584;23.164;2023-09-12T11:21:43;92831.44;;;26.82;39.02
10202;BME280;5143;42.584;23.164;2023-09-12T11:24:09;92822.63;;;26.85;39.01
10202;BME280;5143;42.584;23.164;2023-09-12T11:26:53;92832.69;;;26.98;38.90
10202;BME280;5143;42.584;23.164;2023-09-12T11:29:20;92835.34;;;26.96;38.41
10202;BME280;5143;42.584;23.164;2023-09-12T11:31:53;92833.72;;;26.76;37.42
10202;BME280;5143;42.584;23.164;2023-09-12T11:34:25;92820.38;;;26.84;39.19
10202;BME280;5143;42.584;23.164;2023-09-12T11:36:55;92826.31;;;26.88;38.22
10202;BME280;5143;42.584;23.164;2023-09-12T11:39:23;92826.94;;;26.96;38.91
10202;BME280;5143;42.584;23.164;2023-09-12T11:41:51;92817.66;;;27.03;38.87
10202;BME280;5143;42.584;23.164;2023-09-12T11:44:19;92818.00;;;27.07;38.03
10202;BME280;5143;42.584;23.164;2023-09-12T11:46:47;92818.13;;;27.09;37.62
10202;BME280;5143;42.584;23.164;2023-09-12T11:49:15;92809.81;;;26.92;37.88
10202;BME280;5143;42.584;23.164;2023-09-12T11:51:48;92813.56;;;27.04;38.44
10202;BME280;5143;42.584;23.164;2023-09-12T11:54:18;92814.25;;;26.95;37.34
10202;BME280;5143;42.584;23.164;2023-09-12T11:56:47;92807.59;;;26.90;37.71
10202;BME280;5143;42.584;23.164;2023-09-12T11:59:14;92814.03;;;27.10;37.81
10202;BME280;5143;42.584;23.164;2023-09-12T12:01:44;92813.69;;;27.06;37.26
10202;BME280;5143;42.584;23.164;2023-09-12T12:04:11;92820.47;;;27.03;36.41
10202;BME280;5143;42.584;23.164;2023-09-12T12:06:38;92815.41;;;26.92;36.76
10202;BME280;5143;42.584;23.164;2023-09-12T12:09:08;92811.91;;;26.74;37.31
10202;BME280;5143;42.584;23.164;2023-09-12T12:11:35;92804.06;;;26.73;37.33
10202;BME280;5143;42.584;23.164;2023-09-12T12:14:11;92812.03;;;26.93;36.93
10202;BME280;5143;42.584;23.164;2023-09-12T12:16:39;92798.78;;;27.04;37.46
10202;BME280;5143;42.584;23.164;2023-09-12T12:19:06;92797.81;;;27.18;36.76
10202;BME280;5143;42.584;23.164;2023-09-12T12:21:33;92798.56;;;27.19;38.09
10202;BME280;5143;42.584;23.164;2023-09-12T12:24:00;92794.00;;;27.23;37.75
10202;BME280;5143;42.584;23.164;2023-09-12T12:26:29;92797.81;;;27.18;37.05
10202;BME280;5143;42.584;23.164;2023-09-12T12:28:59;92795.50;;;27.34;36.87
10202;BME280;5143;42.584;23.164;2023-09-12T12:31:25;92794.19;;;27.35;36.80
10202;BME280;5143;42.584;23.164;2023-09-12T12:33:53;92798.75;;;27.40;37.27
10202;BME280;5143;42.584;23.164;2023-09-12T12:36:20;92789.94;;;27.43;36.69
10202;BME280;5143;42.584;23.164;2023-09-12T12:38:49;92791.41;;;27.44;37.30
10202;BME280;5143;42.584;23.164;2023-09-12T12:41:17;92794.69;;;27.41;37.30
10202;BME280;5143;42.584;23.164;2023-09-12T12:43:49;92792.31;;;27.47;36.49
10202;BME280;5143;42.584;23.164;2023-09-12T12:46:17;92790.97;;;27.48;35.84
10202;BME280;5143;42.584;23.164;2023-09-12T12:48:45;92792.00;;;27.52;36.23
10202;BME280;5143;42.584;23.164;2023-09-12T12:51:17;92788.94;;;27.58;36.64
10202;BME280;5143;42.584;23.164;2023-09-12T12:53:45;92789.25;;;27.72;36.05
10202;BME280;5143;42.584;23.164;2023-09-12T12:56:14;92785.09;;;27.53;36.35
10202;BME280;5143;42.584;23.164;2023-09-12T12:58:50;92777.72;;;27.58;35.72
10202;BME280;5143;42.584;23.164;2023-09-12T13:01:18;92775.50;;;27.57;36.08
10202;BME280;5143;42.584;23.164;2023-09-12T13:03:45;92773.59;;;27.59;36.54
10202;BME280;5143;42.584;23.164;2023-09-12T13:06:12;92773.88;;;27.53;36.19